createdAt,value
2018-05-17T00:00:24.989Z,53.80
2018-05-17T00:02:59.316Z,53.90
2018-05-17T00:05:33.634Z,53.50
2018-05-17T00:08:08.094Z,51.80
2018-05-17T00:10:42.588Z,51.40
2018-05-17T00:13:17.024Z,52.40
2018-05-17T00:15:51.688Z,51.00
2018-05-17T00:18:26.173Z,51.80
2018-05-17T00:21:00.689Z,52.50
2018-05-17T00:23:35.213Z,52.50
2018-05-17T00:26:09.638Z,50.80
2018-05-17T00:28:44.005Z,54.40
2018-05-17T00:31:18.326Z,53.50
2018-05-17T00:33:52.783Z,52.70
2018-05-17T00:36:28.004Z,49.10
2018-05-17T00:39:02.349Z,49.30
2018-05-17T00:41:36.618Z,51.60
2018-05-17T00:44:11.091Z,49.60
2018-05-17T00:46:45.529Z,56.10
2018-05-17T00:49:20.918Z,54.80
2018-05-17T00:51:56.092Z,51.90
2018-05-17T00:54:30.405Z,51.80
2018-05-17T00:57:04.731Z,51.50
2018-05-17T00:59:39.057Z,54.50
2018-05-17T01:02:13.491Z,53.90
2018-05-17T01:04:48.692Z,54.60
2018-05-17T01:07:23.105Z,54.50
2018-05-17T01:09:57.566Z,52.30
2018-05-17T01:12:31.835Z,50.30
2018-05-17T01:15:06.205Z,53.50
2018-05-17T01:17:40.675Z,53.50
2018-05-17T01:20:15.029Z,51.80
2018-05-17T01:22:49.350Z,53.00
2018-05-17T01:25:24.480Z,50.70
2018-05-17T01:27:58.944Z,50.80
2018-05-17T01:30:33.376Z,52.10
2018-05-17T01:33:07.717Z,50.20
2018-05-17T01:35:41.981Z,53.80
2018-05-17T01:38:27.010Z,48.80
2018-05-17T01:41:01.436Z,48.70
2018-05-17T01:43:35.901Z,54.10
2018-05-17T01:46:10.516Z,54.20
2018-05-17T01:48:45.556Z,51.40
2018-05-17T01:51:20.248Z,51.60
2018-05-17T01:53:54.721Z,51.00
2018-05-17T01:56:29.195Z,50.80
2018-05-17T01:59:04.430Z,52.00
2018-05-17T02:01:38.733Z,52.10
2018-05-17T02:04:13.102Z,52.00
2018-05-17T02:06:47.546Z,53.40
2018-05-17T02:09:21.809Z,49.80
2018-05-17T02:11:56.225Z,49.80
2018-05-17T02:14:30.475Z,54.60
2018-05-17T02:17:04.861Z,53.40
2018-05-17T02:19:39.403Z,52.40
2018-05-17T02:22:13.720Z,53.20
2018-05-17T02:24:48.016Z,53.10
2018-05-17T02:27:23.191Z,53.90
2018-05-17T02:29:57.487Z,54.00
2018-05-17T02:32:31.836Z,53.00
2018-05-17T02:35:07.020Z,51.90
2018-05-17T02:37:41.553Z,51.90
2018-05-17T02:40:16.210Z,49.80
2018-05-17T02:42:50.651Z,50.80
2018-05-17T02:45:25.298Z,53.70
2018-05-17T02:47:59.696Z,54.20
2018-05-17T02:50:34.008Z,53.40
2018-05-17T02:53:08.311Z,53.60
2018-05-17T02:55:42.601Z,52.50
2018-05-17T02:58:16.877Z,54.90
2018-05-17T03:00:51.290Z,52.70
2018-05-17T03:03:25.789Z,51.50
2018-05-17T03:06:00.128Z,51.90
2018-05-17T03:08:34.587Z,51.40
2018-05-17T03:11:08.980Z,52.00
2018-05-17T03:13:43.373Z,54.70
2018-05-17T03:16:17.818Z,51.60
2018-05-17T03:18:52.074Z,54.40
2018-05-17T03:21:26.641Z,54.00
2018-05-17T03:24:01.801Z,52.60
2018-05-17T03:26:36.220Z,52.70
2018-05-17T03:29:11.436Z,48.90
2018-05-17T03:31:46.635Z,53.40
2018-05-17T03:34:21.017Z,53.50
2018-05-17T03:36:56.055Z,52.80
2018-05-17T03:39:30.433Z,52.90
2018-05-17T03:42:04.749Z,51.50
2018-05-17T03:44:39.261Z,51.70
2018-05-17T03:47:14.304Z,53.90
2018-05-17T03:49:48.815Z,54.00
2018-05-17T03:52:23.356Z,52.90
2018-05-17T03:54:57.795Z,52.60
2018-05-17T03:57:32.216Z,52.10
2018-05-17T04:00:06.618Z,49.20
2018-05-17T04:02:52.771Z,51.50
2018-05-17T04:05:39.660Z,54.30
2018-05-17T04:08:13.962Z,54.30
2018-05-17T04:10:48.336Z,50.80
2018-05-17T04:13:23.732Z,54.60
2018-05-17T04:15:58.082Z,54.60
2018-05-17T04:18:32.392Z,52.20
2018-05-17T04:21:06.858Z,50.50
2018-05-17T04:23:41.165Z,54.90
2018-05-17T04:26:15.717Z,52.90
2018-05-17T04:28:51.549Z,53.30
2018-05-17T04:31:26.574Z,53.40
2018-05-17T04:34:01.025Z,52.80
2018-05-17T04:36:35.320Z,50.50
2018-05-17T04:39:09.695Z,48.90
2018-05-17T04:41:43.985Z,50.60
2018-05-17T04:44:18.279Z,52.70
2018-05-17T04:46:52.568Z,52.50
2018-05-17T04:49:26.878Z,52.80
2018-05-17T04:52:02.173Z,51.80
2018-05-17T04:54:36.550Z,51.60
2018-05-17T04:57:10.990Z,53.00
2018-05-17T04:59:45.299Z,52.50
2018-05-17T05:02:19.654Z,52.60
2018-05-17T05:04:53.957Z,54.30
2018-05-17T05:07:28.251Z,52.50
2018-05-17T05:10:02.816Z,51.00
2018-05-17T05:12:38.016Z,54.10
2018-05-17T05:15:12.456Z,54.20
2018-05-17T05:17:46.815Z,51.00
2018-05-17T05:20:21.324Z,53.30
2018-05-17T05:22:55.705Z,53.60
2018-05-17T05:25:30.001Z,48.00
2018-05-17T05:28:04.344Z,51.50
2018-05-17T05:30:38.673Z,53.60
2018-05-17T05:33:13.199Z,50.40
2018-05-17T05:35:47.716Z,49.70
2018-05-17T05:38:22.245Z,53.00
2018-05-17T05:40:56.725Z,52.10
2018-05-17T05:43:31.445Z,53.40
2018-05-17T05:46:05.801Z,51.40
2018-05-17T05:48:40.244Z,53.40
2018-05-17T05:51:14.689Z,51.70
2018-05-17T05:53:49.100Z,51.20
2018-05-17T05:56:24.338Z,51.10
2018-05-17T05:58:58.721Z,51.10
2018-05-17T06:01:33.183Z,47.50
2018-05-17T06:04:07.557Z,49.10
2018-05-17T06:06:41.920Z,52.70
2018-05-17T06:09:16.196Z,47.30
2018-05-17T06:11:50.633Z,50.50
2018-05-17T06:14:24.996Z,48.20
2018-05-17T06:17:00.154Z,48.90
2018-05-17T06:19:34.558Z,49.00
2018-05-17T06:22:09.836Z,51.20
2018-05-17T06:24:44.234Z,48.70
2018-05-17T06:27:18.514Z,46.30
2018-05-17T06:29:52.955Z,46.20
2018-05-17T06:32:27.293Z,45.50
2018-05-17T06:35:01.665Z,47.20
2018-05-17T06:37:36.151Z,47.00
2018-05-17T06:40:10.426Z,46.50
2018-05-17T06:42:44.847Z,50.40
2018-05-17T06:45:19.186Z,46.80
2018-05-17T06:47:54.401Z,48.70
2018-05-17T06:50:28.877Z,48.70
2018-05-17T06:53:03.252Z,49.10
2018-05-17T06:55:37.774Z,50.10
2018-05-17T06:58:12.089Z,51.40
2018-05-17T07:00:46.524Z,50.30
2018-05-17T07:03:20.936Z,47.80
2018-05-17T07:05:55.434Z,44.60
2018-05-17T07:08:29.814Z,44.90
2018-05-17T07:11:04.098Z,45.50
2018-05-17T07:13:38.497Z,45.50
2018-05-17T07:16:12.910Z,46.30
2018-05-17T07:18:47.572Z,46.10
2018-05-17T07:21:21.630Z,47.40
2018-05-17T07:23:56.096Z,47.30
2018-05-17T07:26:30.444Z,47.80
2018-05-17T07:29:04.799Z,48.90
2018-05-17T07:31:40.017Z,47.10
2018-05-17T07:34:14.396Z,47.00
2018-05-17T07:36:48.986Z,48.50
2018-05-17T07:39:23.401Z,45.90
2018-05-17T07:41:57.817Z,45.10
2018-05-17T07:44:32.230Z,45.80
2018-05-17T07:47:06.657Z,44.90
2018-05-17T07:49:40.942Z,45.60
2018-05-17T07:52:15.314Z,45.50
2018-05-17T07:54:49.653Z,44.20
2018-05-17T07:57:24.252Z,43.30
2018-05-17T07:59:58.548Z,45.10
2018-05-17T08:02:33.001Z,43.20
2018-05-17T08:05:07.401Z,43.50
2018-05-17T08:07:41.885Z,41.40
2018-05-17T08:10:16.268Z,40.50
2018-05-17T08:12:50.778Z,42.20
2018-05-17T08:15:25.100Z,40.60
2018-05-17T08:17:59.642Z,39.70
2018-05-17T08:20:34.161Z,41.20
2018-05-17T08:23:08.463Z,40.00
2018-05-17T08:25:42.906Z,38.60
2018-05-17T08:28:17.220Z,41.50
2018-05-17T08:30:51.603Z,41.20
2018-05-17T08:33:26.032Z,40.40
2018-05-17T08:36:00.360Z,39.50
2018-05-17T08:38:34.781Z,39.90
2018-05-17T08:41:09.213Z,37.80
2018-05-17T08:43:43.740Z,40.30
2018-05-17T08:46:18.212Z,40.50
2018-05-17T08:48:52.577Z,37.10
2018-05-17T08:51:27.832Z,39.40
2018-05-17T08:54:02.120Z,39.30
2018-05-17T08:56:36.574Z,36.50
2018-05-17T08:59:11.008Z,39.20
2018-05-17T09:01:45.320Z,38.90
2018-05-17T09:04:19.725Z,38.00
2018-05-17T09:06:54.026Z,37.70
2018-05-17T09:09:28.381Z,37.50
2018-05-17T09:12:02.894Z,34.80
2018-05-17T09:14:37.282Z,35.00
2018-05-17T09:17:12.314Z,37.80
2018-05-17T09:19:46.836Z,37.80
2018-05-17T09:22:21.376Z,34.30
2018-05-17T09:24:55.796Z,36.80
2018-05-17T09:27:30.096Z,37.10
2018-05-17T09:30:04.545Z,37.60
2018-05-17T09:32:38.910Z,39.60
2018-05-17T09:35:13.204Z,39.20
2018-05-17T09:37:47.504Z,38.10
2018-05-17T09:40:21.935Z,35.70
2018-05-17T09:42:56.648Z,36.40
2018-05-17T09:45:31.157Z,36.70
2018-05-17T09:48:05.490Z,36.60
2018-05-17T09:50:39.816Z,35.70
2018-05-17T09:53:14.173Z,35.70
2018-05-17T09:55:48.485Z,35.50
2018-05-17T09:58:22.961Z,33.70
2018-05-17T10:00:57.260Z,36.70
2018-05-17T10:03:31.721Z,35.20
2018-05-17T10:06:06.142Z,34.80
2018-05-17T10:08:40.416Z,35.10
2018-05-17T10:11:14.872Z,34.90
2018-05-17T10:13:49.126Z,35.90
2018-05-17T10:16:23.560Z,35.00
2018-05-17T10:18:57.973Z,35.30
2018-05-17T10:21:32.549Z,35.00
2018-05-17T10:24:07.742Z,33.90
2018-05-17T10:26:42.063Z,36.00
2018-05-17T10:29:16.550Z,36.80
2018-05-17T10:31:51.045Z,37.90
2018-05-17T10:34:25.478Z,36.60
2018-05-17T10:36:59.884Z,35.80
2018-05-17T10:39:34.352Z,36.40
2018-05-17T10:42:08.730Z,35.00
2018-05-17T10:44:43.253Z,38.70
2018-05-17T10:47:17.886Z,40.90
2018-05-17T10:49:52.384Z,39.50
2018-05-17T10:52:27.745Z,37.20
2018-05-17T10:55:02.081Z,37.20
2018-05-17T10:57:36.613Z,38.90
2018-05-17T11:00:10.929Z,37.00
2018-05-17T11:02:45.355Z,36.20
2018-05-17T11:05:19.693Z,37.50
2018-05-17T11:07:54.073Z,37.10
2018-05-17T11:10:29.306Z,40.00
2018-05-17T11:13:04.353Z,38.90
2018-05-17T11:15:38.722Z,38.90
2018-05-17T11:18:13.097Z,36.40
2018-05-17T11:20:47.380Z,37.70
2018-05-17T11:23:21.718Z,37.40
2018-05-17T11:25:56.277Z,38.20
2018-05-17T11:28:30.573Z,38.40
2018-05-17T11:31:04.992Z,41.50
2018-05-17T11:33:39.313Z,40.50
2018-05-17T11:36:13.717Z,38.30
2018-05-17T11:38:48.146Z,40.00
2018-05-17T11:41:22.562Z,38.70
2018-05-17T11:43:56.920Z,38.20
2018-05-17T11:46:31.223Z,36.20
2018-05-17T11:49:05.741Z,37.50
2018-05-17T11:51:40.054Z,40.10
2018-05-17T11:54:14.484Z,38.80
2018-05-17T11:56:48.885Z,36.90
2018-05-17T11:59:23.290Z,37.20
2018-05-17T12:01:57.635Z,39.80
2018-05-17T12:04:31.924Z,39.20
2018-05-17T12:07:06.575Z,37.70
2018-05-17T12:09:40.870Z,36.70
2018-05-17T12:12:15.318Z,39.70
2018-05-17T12:14:49.746Z,38.10
2018-05-17T12:17:24.057Z,38.70
2018-05-17T12:19:59.293Z,36.30
2018-05-17T12:22:33.716Z,36.20
2018-05-17T12:25:08.119Z,38.60
2018-05-17T12:27:42.619Z,39.60
2018-05-17T12:30:17.096Z,37.50
2018-05-17T12:32:51.483Z,39.50
2018-05-17T12:35:25.917Z,38.30
2018-05-17T12:38:00.445Z,38.20
2018-05-17T12:40:35.356Z,37.40
2018-05-17T12:43:09.708Z,38.20
2018-05-17T12:45:44.012Z,38.20
2018-05-17T12:48:18.597Z,37.90
2018-05-17T12:50:53.146Z,37.80
2018-05-17T12:53:28.194Z,38.20
2018-05-17T12:56:02.711Z,38.20
2018-05-17T12:58:37.800Z,40.90
2018-05-17T13:01:12.126Z,40.90
2018-05-17T13:03:46.440Z,39.40
2018-05-17T13:06:20.902Z,39.10
2018-05-17T13:08:55.238Z,38.40
2018-05-17T13:11:29.541Z,38.00
2018-05-17T13:14:03.934Z,38.40
2018-05-17T13:16:38.229Z,38.20
2018-05-17T13:19:12.703Z,37.30
2018-05-17T13:21:47.227Z,38.20
2018-05-17T13:24:21.657Z,37.10
2018-05-17T13:26:56.160Z,39.80
2018-05-17T13:29:30.457Z,39.50
2018-05-17T13:32:04.848Z,37.20
2018-05-17T13:34:39.107Z,40.20
2018-05-17T13:37:13.604Z,39.70
2018-05-17T13:39:47.968Z,37.80
2018-05-17T13:42:22.472Z,38.40
2018-05-17T13:44:56.791Z,37.90
2018-05-17T13:47:31.217Z,37.50
2018-05-17T13:50:05.432Z,37.50
2018-05-17T13:52:39.752Z,36.50
2018-05-17T13:55:14.120Z,38.20
2018-05-17T13:57:48.489Z,36.30
2018-05-17T14:00:22.956Z,37.70
2018-05-17T14:02:57.399Z,38.30
2018-05-17T14:05:31.769Z,37.00
2018-05-17T14:08:06.179Z,39.20
2018-05-17T14:10:40.844Z,39.50
2018-05-17T14:13:15.360Z,37.20
2018-05-17T14:15:49.872Z,39.30
2018-05-17T14:18:24.449Z,38.10
2018-05-17T14:20:58.712Z,37.20
2018-05-17T14:23:33.032Z,36.80
2018-05-17T14:26:07.401Z,38.80
2018-05-17T14:28:41.841Z,38.70
2018-05-17T14:31:16.294Z,37.80
2018-05-17T14:33:50.901Z,37.30
2018-05-17T14:36:25.160Z,36.30
2018-05-17T14:38:59.517Z,38.80
2018-05-17T14:41:33.940Z,39.00
2018-05-17T14:44:08.391Z,39.80
2018-05-17T14:46:42.821Z,39.00
2018-05-17T14:49:17.264Z,38.80
2018-05-17T14:51:51.652Z,39.30
2018-05-17T14:54:26.166Z,39.80
2018-05-17T14:57:00.596Z,38.40
2018-05-17T14:59:34.897Z,38.30
2018-05-17T15:02:09.261Z,40.80
2018-05-17T15:04:43.557Z,39.30
2018-05-17T15:07:17.926Z,42.30
2018-05-17T15:09:52.356Z,39.80
2018-05-17T15:12:26.823Z,40.30
2018-05-17T15:15:01.224Z,42.80
2018-05-17T15:17:35.683Z,43.20
2018-05-17T15:20:10.244Z,39.30
2018-05-17T15:22:44.902Z,40.40
2018-05-17T15:25:19.246Z,38.90
2018-05-17T15:27:53.746Z,39.60
2018-05-17T15:30:28.973Z,40.70
2018-05-17T15:33:03.440Z,40.70
2018-05-17T15:35:37.705Z,38.20
2018-05-17T15:38:12.160Z,40.50
2018-05-17T15:40:46.446Z,39.60
2018-05-17T15:43:20.744Z,41.20
2018-05-17T15:45:55.103Z,39.50
2018-05-17T15:48:29.533Z,38.40
2018-05-17T15:51:03.930Z,38.10
2018-05-17T15:53:38.417Z,40.70
2018-05-17T15:56:12.717Z,38.10
2018-05-17T15:58:47.321Z,39.40
2018-05-17T16:01:21.824Z,38.90
2018-05-17T16:03:56.151Z,39.60
2018-05-17T16:06:30.514Z,41.60
2018-05-17T16:09:05.643Z,42.90
2018-05-17T16:11:40.800Z,43.40
2018-05-17T16:14:15.129Z,43.40
2018-05-17T16:16:50.364Z,41.80
2018-05-17T16:19:24.817Z,41.80
2018-05-17T16:21:59.112Z,44.50
2018-05-17T16:24:33.444Z,45.60
2018-05-17T16:27:07.744Z,45.80
2018-05-17T16:29:42.066Z,45.90
2018-05-17T16:32:16.631Z,44.50
2018-05-17T16:34:51.171Z,44.40
2018-05-17T16:37:25.454Z,44.50
2018-05-17T16:39:59.853Z,46.00
2018-05-17T16:42:34.388Z,47.00
2018-05-17T16:45:08.911Z,46.50
2018-05-17T16:47:43.439Z,45.90
2018-05-17T16:50:18.066Z,46.20
2018-05-17T16:52:52.550Z,47.40
2018-05-17T16:55:26.792Z,46.80
2018-05-17T16:58:01.350Z,46.50
2018-05-17T17:00:35.790Z,46.40
2018-05-17T17:03:10.041Z,47.50
2018-05-17T17:05:45.995Z,48.10
2018-05-17T17:08:20.345Z,48.10
2018-05-17T17:10:55.605Z,46.80
2018-05-17T17:13:30.023Z,46.80
2018-05-17T17:16:04.472Z,47.60
2018-05-17T17:18:39.045Z,48.10
2018-05-17T17:21:13.334Z,48.70
2018-05-17T17:23:47.696Z,48.70
2018-05-17T17:26:22.006Z,46.80
2018-05-17T17:28:56.413Z,47.80
2018-05-17T17:31:30.938Z,47.20
2018-05-17T17:34:05.338Z,47.80
2018-05-17T17:36:40.584Z,49.00
2018-05-17T17:39:15.022Z,49.00
2018-05-17T17:41:49.451Z,48.90
2018-05-17T17:44:23.938Z,47.90
2018-05-17T17:46:58.608Z,47.90
2018-05-17T17:49:32.866Z,49.10
2018-05-17T17:52:07.130Z,49.90
2018-05-17T17:54:41.462Z,50.10
2018-05-17T17:57:15.966Z,48.80
2018-05-17T17:59:50.593Z,49.00
2018-05-17T18:02:25.115Z,50.10
2018-05-17T18:04:59.419Z,51.60
2018-05-17T18:07:33.805Z,52.50
2018-05-17T18:10:08.124Z,52.40
2018-05-17T18:12:42.456Z,50.40
2018-05-17T18:15:16.779Z,49.80
2018-05-17T18:17:51.044Z,49.60
2018-05-17T18:20:26.152Z,51.00
2018-05-17T18:23:00.661Z,51.00
2018-05-17T18:25:35.145Z,50.90
2018-05-17T18:28:09.432Z,51.00
2018-05-17T18:30:43.868Z,50.10
2018-05-17T18:33:18.970Z,50.20
2018-05-17T18:35:53.325Z,50.30
2018-05-17T18:38:27.620Z,49.70
2018-05-17T18:41:02.200Z,48.10
2018-05-17T18:43:36.764Z,49.00
2018-05-17T18:46:11.213Z,50.00
2018-05-17T18:48:45.619Z,48.80
2018-05-17T18:51:20.024Z,48.30
2018-05-17T18:53:54.341Z,49.10
2018-05-17T18:56:28.868Z,49.20
2018-05-17T18:59:03.182Z,49.40
2018-05-17T19:01:39.253Z,48.10
2018-05-17T19:04:13.572Z,47.90
2018-05-17T19:06:48.089Z,48.20
2018-05-17T19:09:22.347Z,49.80
2018-05-17T19:11:57.453Z,51.20
2018-05-17T19:14:31.886Z,51.20
2018-05-17T19:17:06.396Z,49.90
2018-05-17T19:19:40.737Z,49.10
2018-05-17T19:22:15.071Z,51.30
2018-05-17T19:24:49.561Z,48.60
2018-05-17T19:27:23.998Z,49.50
2018-05-17T19:29:58.376Z,48.10
2018-05-17T19:32:32.915Z,50.00
2018-05-17T19:35:07.535Z,50.80
2018-05-17T19:37:41.842Z,51.20
2018-05-17T19:40:16.305Z,50.10
2018-05-17T19:42:50.690Z,48.90
2018-05-17T19:45:25.129Z,48.00
2018-05-17T19:47:59.417Z,48.00
2018-05-17T19:50:33.700Z,49.70
2018-05-17T19:53:08.881Z,48.60
2018-05-17T19:55:43.339Z,49.00
2018-05-17T19:58:17.655Z,47.10
2018-05-17T20:00:51.937Z,48.40
2018-05-17T20:03:26.503Z,48.40
2018-05-17T20:06:00.768Z,48.50
2018-05-17T20:08:35.192Z,47.20
2018-05-17T20:11:10.945Z,49.10
2018-05-17T20:13:45.372Z,49.70
2018-05-17T20:16:19.864Z,48.20
2018-05-17T20:18:54.174Z,48.40
2018-05-17T20:21:28.664Z,50.00
2018-05-17T20:24:02.932Z,47.40
2018-05-17T20:26:37.267Z,48.50
2018-05-17T20:29:11.726Z,49.20
2018-05-17T20:31:46.025Z,48.40
2018-05-17T20:34:20.577Z,48.30
2018-05-17T20:36:54.856Z,48.00
2018-05-17T20:39:29.899Z,46.60
2018-05-17T20:42:04.398Z,46.60
2018-05-17T20:44:38.856Z,47.20
2018-05-17T20:47:13.165Z,48.40
2018-05-17T20:49:47.484Z,47.10
2018-05-17T20:52:22.021Z,47.50
2018-05-17T20:54:57.969Z,47.20
2018-05-17T20:57:32.392Z,47.20
2018-05-17T21:00:06.805Z,49.40
2018-05-17T21:02:41.267Z,48.90
2018-05-17T21:05:16.563Z,49.70
2018-05-17T21:07:51.805Z,48.60
2018-05-17T21:10:26.324Z,48.60
2018-05-17T21:13:00.713Z,50.10
2018-05-17T21:15:35.040Z,49.60
2018-05-17T21:18:09.379Z,49.30
2018-05-17T21:20:44.385Z,49.10
2018-05-17T21:23:18.712Z,49.00
2018-05-17T21:25:53.290Z,48.30
2018-05-17T21:28:27.640Z,49.50
2018-05-17T21:31:02.011Z,47.70
2018-05-17T21:33:37.025Z,48.70
2018-05-17T21:36:11.531Z,49.80
2018-05-17T21:38:45.905Z,47.40
2018-05-17T21:41:20.200Z,49.20
2018-05-17T21:43:54.646Z,50.30
2018-05-17T21:46:29.051Z,48.90
2018-05-17T21:49:04.289Z,50.10
2018-05-17T21:51:38.781Z,50.10
2018-05-17T21:54:13.069Z,47.90
2018-05-17T21:56:47.666Z,50.10
2018-05-17T21:59:22.097Z,49.50
2018-05-17T22:01:56.478Z,50.40
2018-05-17T22:04:30.921Z,49.20
2018-05-17T22:07:05.199Z,49.80
2018-05-17T22:09:39.462Z,49.80
2018-05-17T22:12:13.755Z,49.90
2018-05-17T22:14:48.181Z,49.20
2018-05-17T22:17:22.592Z,48.60
2018-05-17T22:19:56.924Z,48.90
2018-05-17T22:22:32.061Z,50.10
2018-05-17T22:25:06.394Z,50.00
2018-05-17T22:27:40.688Z,48.90
2018-05-17T22:30:15.114Z,49.40
2018-05-17T22:32:49.520Z,47.80
2018-05-17T22:35:23.864Z,48.80
2018-05-17T22:37:58.349Z,50.70
2018-05-17T22:40:32.659Z,49.60
2018-05-17T22:43:07.019Z,48.70
2018-05-17T22:45:41.320Z,48.10
2018-05-17T22:48:15.861Z,50.60
2018-05-17T22:50:51.097Z,48.60
2018-05-17T22:53:25.436Z,50.40
2018-05-17T22:55:59.810Z,49.20
2018-05-17T22:58:34.369Z,50.30
2018-05-17T23:01:08.874Z,50.60
2018-05-17T23:03:43.206Z,49.10
2018-05-17T23:06:17.590Z,47.80
2018-05-17T23:08:52.017Z,48.70
2018-05-17T23:11:26.313Z,50.20
2018-05-17T23:14:00.673Z,49.20
2018-05-17T23:16:35.095Z,48.80
2018-05-17T23:19:09.521Z,49.60
2018-05-17T23:21:43.857Z,46.60
2018-05-17T23:24:18.176Z,50.70
2018-05-17T23:26:52.700Z,49.90
2018-05-17T23:29:27.021Z,49.70
2018-05-17T23:32:01.554Z,49.60
2018-05-17T23:34:36.095Z,47.50
2018-05-17T23:37:19.078Z,50.40
2018-05-17T23:39:53.802Z,50.40
2018-05-17T23:42:28.996Z,47.30
2018-05-17T23:45:03.266Z,47.20
2018-05-17T23:47:37.778Z,50.90
2018-05-17T23:50:12.177Z,50.00
2018-05-17T23:52:46.471Z,50.70
2018-05-17T23:55:20.833Z,49.50
2018-05-17T23:57:55.263Z,50.30
